sensor_id;sensor_type;location;lat;lon;timestamp;P1;durP1;ratioP1;P2;durP2;ratioP2
31638;SDS011;18248;51.522;7.020;2023-03-04T00:01:15;23.40;;;4.82;;
31638;SDS011;18248;51.522;7.020;2023-03-04T00:04:14;21.67;;;3.45;;
31638;SDS011;18248;51.522;7.020;2023-03-04T00:07:13;17.20;;;4.32;;
31638;SDS011;18248;51.522;7.020;2023-03-04T00:10:15;24.65;;;3.80;;
31638;SDS011;18248;51.522;7.020;2023-03-04T00:13:14;21.73;;;4.60;;
31638;SDS011;18248;51.522;7.020;2023-03-04T00:16:13;17.38;;;4.45;;
31638;SDS011;18248;51.522;7.020;2023-03-04T00:19:12;22.92;;;3.97;;
31638;SDS011;18248;51.522;7.020;2023-03-04T00:22:10;19.65;;;4.20;;
31638;SDS011;18248;51.522;7.020;2023-03-04T00:25:09;25.42;;;3.88;;
31638;SDS011;18248;51.522;7.020;2023-03-04T00:28:08;19.10;;;4.10;;
31638;SDS011;18248;51.522;7.020;2023-03-04T00:31:07;17.95;;;3.65;;
31638;SDS011;18248;51.522;7.020;2023-03-04T00:34:05;27.02;;;4.13;;
31638;SDS011;18248;51.522;7.020;2023-03-04T00:37:04;23.52;;;5.13;;
31638;SDS011;18248;51.522;7.020;2023-03-04T00:40:05;27.55;;;4.63;;
31638;SDS011;18248;51.522;7.020;2023-03-04T00:43:04;18.33;;;3.75;;
31638;SDS011;18248;51.522;7.020;2023-03-04T00:46:03;24.95;;;4.13;;
31638;SDS011;18248;51.522;7.020;2023-03-04T00:49:02;24.60;;;4.30;;
31638;SDS011;18248;51.522;7.020;2023-03-04T00:52:01;21.50;;;4.25;;
31638;SDS011;18248;51.522;7.020;2023-03-04T00:55:00;27.60;;;4.13;;
31638;SDS011;18248;51.522;7.020;2023-03-04T00:57:59;23.48;;;3.67;;
31638;SDS011;18248;51.522;7.020;2023-03-04T01:00:57;20.48;;;4.97;;
31638;SDS011;18248;51.522;7.020;2023-03-04T01:03:56;26.73;;;4.07;;
31638;SDS011;18248;51.522;7.020;2023-03-04T01:06:54;19.20;;;4.30;;
31638;SDS011;18248;51.522;7.020;2023-03-04T01:09:53;23.20;;;3.80;;
31638;SDS011;18248;51.522;7.020;2023-03-04T01:12:51;24.85;;;3.80;;
31638;SDS011;18248;51.522;7.020;2023-03-04T01:15:50;22.08;;;4.30;;
31638;SDS011;18248;51.522;7.020;2023-03-04T01:18:49;25.52;;;4.65;;
31638;SDS011;18248;51.522;7.020;2023-03-04T01:21:48;20.25;;;4.55;;
31638;SDS011;18248;51.522;7.020;2023-03-04T01:24:47;23.13;;;4.35;;
31638;SDS011;18248;51.522;7.020;2023-03-04T01:27:45;20.75;;;3.40;;
31638;SDS011;18248;51.522;7.020;2023-03-04T01:30:44;14.23;;;3.42;;
31638;SDS011;18248;51.522;7.020;2023-03-04T01:33:42;22.90;;;3.50;;
31638;SDS011;18248;51.522;7.020;2023-03-04T01:36:41;28.45;;;4.65;;
31638;SDS011;18248;51.522;7.020;2023-03-04T01:39:40;21.70;;;3.97;;
31638;SDS011;18248;51.522;7.020;2023-03-04T01:42:39;19.85;;;3.88;;
31638;SDS011;18248;51.522;7.020;2023-03-04T01:45:38;24.83;;;3.88;;
31638;SDS011;18248;51.522;7.020;2023-03-04T01:48:37;43.97;;;4.63;;
31638;SDS011;18248;51.522;7.020;2023-03-04T01:51:36;22.55;;;3.80;;
31638;SDS011;18248;51.522;7.020;2023-03-04T01:54:36;23.27;;;4.25;;
31638;SDS011;18248;51.522;7.020;2023-03-04T01:57:35;23.98;;;3.42;;
31638;SDS011;18248;51.522;7.020;2023-03-04T02:00:37;32.65;;;4.60;;
31638;SDS011;18248;51.522;7.020;2023-03-04T02:03:36;22.08;;;3.90;;
31638;SDS011;18248;51.522;7.020;2023-03-04T02:06:36;23.50;;;3.50;;
31638;SDS011;18248;51.522;7.020;2023-03-04T02:09:36;30.15;;;4.85;;
31638;SDS011;18248;51.522;7.020;2023-03-04T02:12:35;28.02;;;4.07;;
31638;SDS011;18248;51.522;7.020;2023-03-04T02:15:33;34.25;;;5.90;;
31638;SDS011;18248;51.522;7.020;2023-03-04T02:18:32;28.63;;;3.85;;
31638;SDS011;18248;51.522;7.020;2023-03-04T02:21:31;21.05;;;3.25;;
31638;SDS011;18248;51.522;7.020;2023-03-04T02:24:37;18.38;;;3.63;;
31638;SDS011;18248;51.522;7.020;2023-03-04T02:27:43;29.50;;;4.30;;
31638;SDS011;18248;51.522;7.020;2023-03-04T02:30:41;17.90;;;3.63;;
31638;SDS011;18248;51.522;7.020;2023-03-04T02:33:40;23.77;;;3.72;;
31638;SDS011;18248;51.522;7.020;2023-03-04T02:36:38;27.25;;;4.13;;
31638;SDS011;18248;51.522;7.020;2023-03-04T02:39:39;28.02;;;3.83;;
31638;SDS011;18248;51.522;7.020;2023-03-04T02:42:42;22.83;;;3.92;;
31638;SDS011;18248;51.522;7.020;2023-03-04T02:45:46;29.45;;;3.75;;
31638;SDS011;18248;51.522;7.020;2023-03-04T02:48:46;26.15;;;4.78;;
31638;SDS011;18248;51.522;7.020;2023-03-04T02:51:46;17.25;;;3.45;;
31638;SDS011;18248;51.522;7.020;2023-03-04T02:54:48;24.35;;;5.22;;
31638;SDS011;18248;51.522;7.020;2023-03-04T02:57:47;22.73;;;3.40;;
31638;SDS011;18248;51.522;7.020;2023-03-04T03:00:45;23.85;;;3.70;;
31638;SDS011;18248;51.522;7.020;2023-03-04T03:03:44;23.48;;;3.38;;
31638;SDS011;18248;51.522;7.020;2023-03-04T03:06:43;19.70;;;3.30;;
31638;SDS011;18248;51.522;7.020;2023-03-04T03:09:42;20.83;;;3.75;;
31638;SDS011;18248;51.522;7.020;2023-03-04T03:12:40;18.42;;;3.67;;
31638;SDS011;18248;51.522;7.020;2023-03-04T03:15:40;18.33;;;4.15;;
31638;SDS011;18248;51.522;7.020;2023-03-04T03:18:39;21.58;;;3.40;;
31638;SDS011;18248;51.522;7.020;2023-03-04T03:21:38;20.58;;;3.53;;
31638;SDS011;18248;51.522;7.020;2023-03-04T03:24:37;20.35;;;3.00;;
31638;SDS011;18248;51.522;7.020;2023-03-04T03:27:35;21.38;;;3.92;;
31638;SDS011;18248;51.522;7.020;2023-03-04T03:30:34;27.63;;;4.10;;
31638;SDS011;18248;51.522;7.020;2023-03-04T03:33:32;18.95;;;3.35;;
31638;SDS011;18248;51.522;7.020;2023-03-04T03:36:31;20.75;;;4.32;;
31638;SDS011;18248;51.522;7.020;2023-03-04T03:39:30;26.15;;;4.35;;
31638;SDS011;18248;51.522;7.020;2023-03-04T03:42:28;27.90;;;4.28;;
31638;SDS011;18248;51.522;7.020;2023-03-04T03:45:27;16.42;;;3.08;;
31638;SDS011;18248;51.522;7.020;2023-03-04T03:48:25;26.38;;;3.42;;
31638;SDS011;18248;51.522;7.020;2023-03-04T03:51:24;19.52;;;3.72;;
31638;SDS011;18248;51.522;7.020;2023-03-04T03:54:22;24.25;;;3.55;;
31638;SDS011;18248;51.522;7.020;2023-03-04T03:57:21;21.50;;;2.92;;
31638;SDS011;18248;51.522;7.020;2023-03-04T04:00:20;21.98;;;3.22;;
31638;SDS011;18248;51.522;7.020;2023-03-04T04:03:19;19.25;;;3.05;;
31638;SDS011;18248;51.522;7.020;2023-03-04T04:06:18;25.67;;;3.17;;
31638;SDS011;18248;51.522;7.020;2023-03-04T04:09:18;22.80;;;3.30;;
31638;SDS011;18248;51.522;7.020;2023-03-04T04:12:18;12.85;;;3.38;;
31638;SDS011;18248;51.522;7.020;2023-03-04T04:15:17;27.95;;;3.78;;
31638;SDS011;18248;51.522;7.020;2023-03-04T04:18:16;14.85;;;3.10;;
31638;SDS011;18248;51.522;7.020;2023-03-04T04:21:14;26.40;;;3.53;;
31638;SDS011;18248;51.522;7.020;2023-03-04T04:24:13;15.05;;;3.00;;
31638;SDS011;18248;51.522;7.020;2023-03-04T04:27:13;24.02;;;3.40;;
31638;SDS011;18248;51.522;7.020;2023-03-04T04:30:11;19.48;;;2.75;;
31638;SDS011;18248;51.522;7.020;2023-03-04T04:33:12;20.45;;;3.03;;
31638;SDS011;18248;51.522;7.020;2023-03-04T04:36:13;17.35;;;3.28;;
31638;SDS011;18248;51.522;7.020;2023-03-04T04:39:13;24.48;;;3.33;;
31638;SDS011;18248;51.522;7.020;2023-03-04T04:42:11;27.33;;;3.80;;
31638;SDS011;18248;51.522;7.020;2023-03-04T04:45:10;13.25;;;2.53;;
31638;SDS011;18248;51.522;7.020;2023-03-04T04:48:08;27.05;;;3.28;;
31638;SDS011;18248;51.522;7.020;2023-03-04T04:51:07;17.45;;;2.55;;
31638;SDS011;18248;51.522;7.020;2023-03-04T04:54:05;16.13;;;2.58;;
31638;SDS011;18248;51.522;7.020;2023-03-04T04:57:04;18.63;;;2.55;;
31638;SDS011;18248;51.522;7.020;2023-03-04T05:00:04;23.90;;;2.83;;
31638;SDS011;18248;51.522;7.020;2023-03-04T05:03:03;14.77;;;2.72;;
31638;SDS011;18248;51.522;7.020;2023-03-04T05:06:02;16.45;;;2.88;;
31638;SDS011;18248;51.522;7.020;2023-03-04T05:09:04;20.27;;;2.92;;
31638;SDS011;18248;51.522;7.020;2023-03-04T05:12:04;13.30;;;2.75;;
31638;SDS011;18248;51.522;7.020;2023-03-04T05:15:04;17.17;;;2.40;;
31638;SDS011;18248;51.522;7.020;2023-03-04T05:18:03;16.42;;;2.00;;
31638;SDS011;18248;51.522;7.020;2023-03-04T05:21:02;16.15;;;2.70;;
31638;SDS011;18248;51.522;7.020;2023-03-04T05:24:01;21.90;;;2.90;;
31638;SDS011;18248;51.522;7.020;2023-03-04T05:27:00;19.20;;;3.13;;
31638;SDS011;18248;51.522;7.020;2023-03-04T05:30:00;14.48;;;2.78;;
31638;SDS011;18248;51.522;7.020;2023-03-04T05:32:59;14.70;;;2.88;;
31638;SDS011;18248;51.522;7.020;2023-03-04T05:35:58;16.42;;;2.80;;
31638;SDS011;18248;51.522;7.020;2023-03-04T05:38:56;16.45;;;2.67;;
31638;SDS011;18248;51.522;7.020;2023-03-04T05:41:55;15.15;;;2.22;;
31638;SDS011;18248;51.522;7.020;2023-03-04T05:44:53;18.80;;;3.33;;
31638;SDS011;18248;51.522;7.020;2023-03-04T05:47:52;20.60;;;3.15;;
31638;SDS011;18248;51.522;7.020;2023-03-04T05:50:52;23.95;;;3.33;;
31638;SDS011;18248;51.522;7.020;2023-03-04T05:53:53;12.45;;;2.47;;
31638;SDS011;18248;51.522;7.020;2023-03-04T05:56:52;15.98;;;3.65;;
31638;SDS011;18248;51.522;7.020;2023-03-04T05:59:52;17.83;;;2.75;;
31638;SDS011;18248;51.522;7.020;2023-03-04T06:02:51;14.52;;;2.83;;
31638;SDS011;18248;51.522;7.020;2023-03-04T06:05:52;31.02;;;3.67;;
31638;SDS011;18248;51.522;7.020;2023-03-04T06:08:51;22.42;;;3.20;;
31638;SDS011;18248;51.522;7.020;2023-03-04T06:11:49;17.00;;;3.30;;
31638;SDS011;18248;51.522;7.020;2023-03-04T06:14:48;21.30;;;2.63;;
31638;SDS011;18248;51.522;7.020;2023-03-04T06:17:46;21.00;;;3.15;;
31638;SDS011;18248;51.522;7.020;2023-03-04T06:20:45;18.02;;;3.00;;
31638;SDS011;18248;51.522;7.020;2023-03-04T06:23:43;17.90;;;3.15;;
31638;SDS011;18248;51.522;7.020;2023-03-04T06:26:42;22.10;;;2.95;;
31638;SDS011;18248;51.522;7.020;2023-03-04T06:29:42;19.10;;;2.55;;
31638;SDS011;18248;51.522;7.020;2023-03-04T06:32:41;34.20;;;3.63;;
31638;SDS011;18248;51.522;7.020;2023-03-04T06:35:41;19.25;;;2.55;;
31638;SDS011;18248;51.522;7.020;2023-03-04T06:38:39;20.85;;;2.80;;
31638;SDS011;18248;51.522;7.020;2023-03-04T06:41:38;10.88;;;2.50;;
31638;SDS011;18248;51.522;7.020;2023-03-04T06:44:36;15.38;;;2.28;;
31638;SDS011;18248;51.522;7.020;2023-03-04T06:47:35;15.90;;;2.15;;
31638;SDS011;18248;51.522;7.020;2023-03-04T06:50:34;11.55;;;2.40;;
31638;SDS011;18248;51.522;7.020;2023-03-04T06:53:32;23.80;;;2.78;;
31638;SDS011;18248;51.522;7.020;2023-03-04T06:56:31;14.05;;;2.08;;
31638;SDS011;18248;51.522;7.020;2023-03-04T06:59:29;14.07;;;2.58;;
31638;SDS011;18248;51.522;7.020;2023-03-04T07:02:28;14.07;;;2.55;;
31638;SDS011;18248;51.522;7.020;2023-03-04T07:05:27;16.48;;;2.90;;
31638;SDS011;18248;51.522;7.020;2023-03-04T07:08:25;17.83;;;3.03;;
31638;SDS011;18248;51.522;7.020;2023-03-04T07:11:24;28.30;;;3.28;;
31638;SDS011;18248;51.522;7.020;2023-03-04T07:14:23;11.45;;;3.13;;
31638;SDS011;18248;51.522;7.020;2023-03-04T07:17:21;16.67;;;3.35;;
31638;SDS011;18248;51.522;7.020;2023-03-04T07:20:20;25.73;;;3.45;;
31638;SDS011;18248;51.522;7.020;2023-03-04T07:23:18;10.48;;;2.28;;
31638;SDS011;18248;51.522;7.020;2023-03-04T07:26:17;14.93;;;2.05;;
31638;SDS011;18248;51.522;7.020;2023-03-04T07:29:16;21.70;;;2.90;;
31638;SDS011;18248;51.522;7.020;2023-03-04T07:32:15;19.40;;;3.20;;
31638;SDS011;18248;51.522;7.020;2023-03-04T07:35:15;21.25;;;3.45;;
31638;SDS011;18248;51.522;7.020;2023-03-04T07:38:15;19.38;;;2.90;;
31638;SDS011;18248;51.522;7.020;2023-03-04T07:41:14;24.23;;;3.17;;
31638;SDS011;18248;51.522;7.020;2023-03-04T07:44:15;19.10;;;2.90;;
31638;SDS011;18248;51.522;7.020;2023-03-04T07:47:13;18.55;;;2.78;;
31638;SDS011;18248;51.522;7.020;2023-03-04T07:50:17;15.85;;;2.38;;
31638;SDS011;18248;51.522;7.020;2023-03-04T07:56:16;12.25;;;1.83;;
31638;SDS011;18248;51.522;7.020;2023-03-04T07:59:16;18.13;;;3.00;;
31638;SDS011;18248;51.522;7.020;2023-03-04T08:02:15;23.25;;;2.83;;
31638;SDS011;18248;51.522;7.020;2023-03-04T08:05:13;19.98;;;2.70;;
31638;SDS011;18248;51.522;7.020;2023-03-04T08:08:15;15.80;;;3.13;;
31638;SDS011;18248;51.522;7.020;2023-03-04T08:11:15;14.02;;;2.88;;
31638;SDS011;18248;51.522;7.020;2023-03-04T08:14:16;11.52;;;2.33;;
31638;SDS011;18248;51.522;7.020;2023-03-04T08:17:14;15.75;;;2.85;;
31638;SDS011;18248;51.522;7.020;2023-03-04T08:20:13;17.35;;;2.70;;
31638;SDS011;18248;51.522;7.020;2023-03-04T08:23:14;22.05;;;3.60;;
31638;SDS011;18248;51.522;7.020;2023-03-04T08:26:18;18.65;;;2.40;;
31638;SDS011;18248;51.522;7.020;2023-03-04T08:29:20;17.63;;;2.55;;
31638;SDS011;18248;51.522;7.020;2023-03-04T08:32:20;13.63;;;2.78;;
31638;SDS011;18248;51.522;7.020;2023-03-04T08:35:19;14.23;;;2.97;;
31638;SDS011;18248;51.522;7.020;2023-03-04T08:38:17;13.98;;;2.90;;
31638;SDS011;18248;51.522;7.020;2023-03-04T08:41:16;13.10;;;2.75;;
31638;SDS011;18248;51.522;7.020;2023-03-04T08:44:15;13.27;;;3.45;;
31638;SDS011;18248;51.522;7.020;2023-03-04T08:47:13;19.00;;;3.30;;
31638;SDS011;18248;51.522;7.020;2023-03-04T08:50:12;12.70;;;2.85;;
31638;SDS011;18248;51.522;7.020;2023-03-04T08:53:11;18.90;;;3.45;;
31638;SDS011;18248;51.522;7.020;2023-03-04T08:56:11;18.13;;;2.85;;
31638;SDS011;18248;51.522;7.020;2023-03-04T08:59:10;13.82;;;2.60;;
31638;SDS011;18248;51.522;7.020;2023-03-04T09:02:09;17.52;;;3.22;;
31638;SDS011;18248;51.522;7.020;2023-03-04T09:05:08;12.95;;;2.53;;
31638;SDS011;18248;51.522;7.020;2023-03-04T09:08:06;12.10;;;2.53;;
31638;SDS011;18248;51.522;7.020;2023-03-04T09:11:06;9.65;;;2.60;;
31638;SDS011;18248;51.522;7.020;2023-03-04T09:14:05;12.63;;;2.20;;
31638;SDS011;18248;51.522;7.020;2023-03-04T09:17:04;15.82;;;2.30;;
31638;SDS011;18248;51.522;7.020;2023-03-04T09:20:03;18.52;;;3.00;;
31638;SDS011;18248;51.522;7.020;2023-03-04T09:23:02;17.73;;;2.80;;
31638;SDS011;18248;51.522;7.020;2023-03-04T09:26:11;14.38;;;2.53;;
31638;SDS011;18248;51.522;7.020;2023-03-04T09:29:11;16.00;;;3.05;;
31638;SDS011;18248;51.522;7.020;2023-03-04T09:32:10;13.70;;;2.42;;
31638;SDS011;18248;51.522;7.020;2023-03-04T09:35:08;13.85;;;3.42;;
31638;SDS011;18248;51.522;7.020;2023-03-04T09:38:07;17.95;;;3.40;;
31638;SDS011;18248;51.522;7.020;2023-03-04T09:41:07;11.95;;;2.83;;
31638;SDS011;18248;51.522;7.020;2023-03-04T09:47:40;18.45;;;2.90;;
31638;SDS011;18248;51.522;7.020;2023-03-04T09:50:43;17.58;;;3.10;;
31638;SDS011;18248;51.522;7.020;2023-03-04T09:54:16;16.17;;;2.90;;
31638;SDS011;18248;51.522;7.020;2023-03-04T10:00:31;10.05;;;2.00;;
31638;SDS011;18248;51.522;7.020;2023-03-04T10:03:49;12.52;;;2.30;;
31638;SDS011;18248;51.522;7.020;2023-03-04T10:06:51;13.90;;;3.08;;
31638;SDS011;18248;51.522;7.020;2023-03-04T10:09:53;11.75;;;3.42;;
31638;SDS011;18248;51.522;7.020;2023-03-04T10:12:58;14.50;;;2.63;;
31638;SDS011;18248;51.522;7.020;2023-03-04T10:15:58;15.02;;;2.90;;
31638;SDS011;18248;51.522;7.020;2023-03-04T10:19:02;12.50;;;2.85;;
31638;SDS011;18248;51.522;7.020;2023-03-04T10:25:27;10.15;;;2.20;;
31638;SDS011;18248;51.522;7.020;2023-03-04T10:28:29;11.48;;;2.22;;
31638;SDS011;18248;51.522;7.020;2023-03-04T10:31:33;13.13;;;2.17;;
31638;SDS011;18248;51.522;7.020;2023-03-04T10:34:33;8.52;;;2.25;;
31638;SDS011;18248;51.522;7.020;2023-03-04T10:37:45;9.73;;;2.35;;
31638;SDS011;18248;51.522;7.020;2023-03-04T10:40:46;12.02;;;2.10;;
31638;SDS011;18248;51.522;7.020;2023-03-04T10:47:00;12.45;;;2.30;;
31638;SDS011;18248;51.522;7.020;2023-03-04T10:50:00;8.25;;;1.80;;
31638;SDS011;18248;51.522;7.020;2023-03-04T10:53:01;11.38;;;1.73;;
31638;SDS011;18248;51.522;7.020;2023-03-04T10:56:00;7.18;;;1.73;;
31638;SDS011;18248;51.522;7.020;2023-03-04T11:02:28;11.95;;;1.67;;
31638;SDS011;18248;51.522;7.020;2023-03-04T11:05:30;10.70;;;1.58;;
31638;SDS011;18248;51.522;7.020;2023-03-04T11:08:29;10.40;;;2.03;;
31638;SDS011;18248;51.522;7.020;2023-03-04T11:11:36;11.10;;;2.05;;
31638;SDS011;18248;51.522;7.020;2023-03-04T11:14:40;10.25;;;1.73;;
31638;SDS011;18248;51.522;7.020;2023-03-04T11:17:47;7.18;;;1.52;;
31638;SDS011;18248;51.522;7.020;2023-03-04T11:20:49;12.73;;;2.08;;
31638;SDS011;18248;51.522;7.020;2023-03-04T11:23:59;12.38;;;2.47;;
31638;SDS011;18248;51.522;7.020;2023-03-04T11:27:14;7.53;;;1.63;;
31638;SDS011;18248;51.522;7.020;2023-03-04T11:30:25;7.45;;;2.10;;
31638;SDS011;18248;51.522;7.020;2023-03-04T11:33:30;9.38;;;1.35;;
31638;SDS011;18248;51.522;7.020;2023-03-04T11:40:02;7.72;;;1.77;;
31638;SDS011;18248;51.522;7.020;2023-03-04T11:43:11;6.85;;;1.30;;
31638;SDS011;18248;51.522;7.020;2023-03-04T11:52:58;8.40;;;2.10;;
31638;SDS011;18248;51.522;7.020;2023-03-04T11:56:35;5.50;;;1.63;;
31638;SDS011;18248;51.522;7.020;2023-03-04T11:59:44;9.82;;;1.95;;
31638;SDS011;18248;51.522;7.020;2023-03-04T12:02:58;9.82;;;2.08;;
31638;SDS011;18248;51.522;7.020;2023-03-04T12:06:04;7.07;;;2.10;;
31638;SDS011;18248;51.522;7.020;2023-03-04T12:19:45;4.65;;;1.48;;
31638;SDS011;18248;51.522;7.020;2023-03-04T12:22:55;5.03;;;1.23;;
31638;SDS011;18248;51.522;7.020;2023-03-04T12:26:22;5.55;;;1.48;;
31638;SDS011;18248;51.522;7.020;2023-03-04T12:36:24;5.25;;;1.63;;
31638;SDS011;18248;51.522;7.020;2023-03-04T12:56:25;5.47;;;1.95;;
31638;SDS011;18248;51.522;7.020;2023-03-04T12:59:43;8.90;;;1.83;;
31638;SDS011;18248;51.522;7.020;2023-03-04T13:06:22;5.15;;;1.92;;
31638;SDS011;18248;51.522;7.020;2023-03-04T13:09:32;6.80;;;2.05;;
31638;SDS011;18248;51.522;7.020;2023-03-04T13:16:00;4.70;;;1.60;;
31638;SDS011;18248;51.522;7.020;2023-03-04T13:19:00;6.38;;;2.42;;
31638;SDS011;18248;51.522;7.020;2023-03-04T13:21:58;6.85;;;2.60;;
31638;SDS011;18248;51.522;7.020;2023-03-04T13:24:58;5.55;;;1.88;;
31638;SDS011;18248;51.522;7.020;2023-03-04T13:31:21;6.13;;;2.03;;
31638;SDS011;18248;51.522;7.020;2023-03-04T13:34:44;5.53;;;2.20;;
31638;SDS011;18248;51.522;7.020;2023-03-04T13:37:55;4.72;;;1.65;;
31638;SDS011;18248;51.522;7.020;2023-03-04T13:44:55;5.22;;;1.98;;
31638;SDS011;18248;51.522;7.020;2023-03-04T13:47:54;10.93;;;2.20;;
31638;SDS011;18248;51.522;7.020;2023-03-04T13:50:52;9.55;;;3.38;;
31638;SDS011;18248;51.522;7.020;2023-03-04T13:59:57;4.07;;;1.98;;
31638;SDS011;18248;51.522;7.020;2023-03-04T14:02:56;5.55;;;1.77;;
31638;SDS011;18248;51.522;7.020;2023-03-04T14:09:14;6.72;;;2.05;;
31638;SDS011;18248;51.522;7.020;2023-03-04T14:12:14;4.93;;;1.55;;
31638;SDS011;18248;51.522;7.020;2023-03-04T14:15:24;3.08;;;1.42;;
31638;SDS011;18248;51.522;7.020;2023-03-04T14:18:24;9.60;;;1.80;;
31638;SDS011;18248;51.522;7.020;2023-03-04T14:21:23;10.32;;;1.80;;
31638;SDS011;18248;51.522;7.020;2023-03-04T14:24:23;8.60;;;2.38;;
31638;SDS011;18248;51.522;7.020;2023-03-04T14:27:22;13.82;;;4.82;;
31638;SDS011;18248;51.522;7.020;2023-03-04T14:30:25;17.42;;;7.35;;
31638;SDS011;18248;51.522;7.020;2023-03-04T14:33:27;10.48;;;5.32;;
31638;SDS011;18248;51.522;7.020;2023-03-04T14:36:28;6.57;;;2.63;;
31638;SDS011;18248;51.522;7.020;2023-03-04T14:39:30;10.23;;;2.72;;
31638;SDS011;18248;51.522;7.020;2023-03-04T14:42:37;11.88;;;7.05;;
31638;SDS011;18248;51.522;7.020;2023-03-04T14:45:39;7.85;;;2.53;;
31638;SDS011;18248;51.522;7.020;2023-03-04T14:48:40;20.70;;;8.88;;
31638;SDS011;18248;51.522;7.020;2023-03-04T14:51:47;18.92;;;6.45;;
31638;SDS011;18248;51.522;7.020;2023-03-04T14:54:57;13.65;;;2.53;;
31638;SDS011;18248;51.522;7.020;2023-03-04T14:58:17;12.07;;;2.67;;
31638;SDS011;18248;51.522;7.020;2023-03-04T15:01:21;7.57;;;2.20;;
31638;SDS011;18248;51.522;7.020;2023-03-04T15:04:43;9.43;;;1.98;;
31638;SDS011;18248;51.522;7.020;2023-03-04T15:07:43;10.05;;;2.45;;
31638;SDS011;18248;51.522;7.020;2023-03-04T15:13:58;8.55;;;1.90;;
31638;SDS011;18248;51.522;7.020;2023-03-04T15:16:57;14.00;;;2.15;;
31638;SDS011;18248;51.522;7.020;2023-03-04T15:19:58;8.93;;;1.77;;
31638;SDS011;18248;51.522;7.020;2023-03-04T15:23:08;15.80;;;2.13;;
31638;SDS011;18248;51.522;7.020;2023-03-04T15:26:11;11.77;;;2.37;;
31638;SDS011;18248;51.522;7.020;2023-03-04T15:29:14;17.90;;;3.60;;
31638;SDS011;18248;51.522;7.020;2023-03-04T15:32:14;7.90;;;1.90;;
31638;SDS011;18248;51.522;7.020;2023-03-04T15:35:14;12.43;;;2.15;;
31638;SDS011;18248;51.522;7.020;2023-03-04T15:38:14;13.57;;;2.50;;
31638;SDS011;18248;51.522;7.020;2023-03-04T15:41:14;16.33;;;2.55;;
31638;SDS011;18248;51.522;7.020;2023-03-04T15:44:17;12.75;;;2.25;;
31638;SDS011;18248;51.522;7.020;2023-03-04T15:47:16;10.30;;;2.20;;
31638;SDS011;18248;51.522;7.020;2023-03-04T15:50:16;10.60;;;2.50;;
31638;SDS011;18248;51.522;7.020;2023-03-04T15:53:24;16.70;;;5.25;;
31638;SDS011;18248;51.522;7.020;2023-03-04T15:56:28;10.20;;;3.05;;
31638;SDS011;18248;51.522;7.020;2023-03-04T15:59:31;17.05;;;4.15;;
31638;SDS011;18248;51.522;7.020;2023-03-04T16:02:29;13.88;;;3.70;;
31638;SDS011;18248;51.522;7.020;2023-03-04T16:05:28;14.70;;;4.10;;
31638;SDS011;18248;51.522;7.020;2023-03-04T16:08:26;12.38;;;2.17;;
31638;SDS011;18248;51.522;7.020;2023-03-04T16:11:26;17.15;;;3.80;;
31638;SDS011;18248;51.522;7.020;2023-03-04T16:14:26;7.72;;;2.30;;
31638;SDS011;18248;51.522;7.020;2023-03-04T16:17:26;7.47;;;2.03;;
31638;SDS011;18248;51.522;7.020;2023-03-04T16:20:26;8.95;;;2.00;;
31638;SDS011;18248;51.522;7.020;2023-03-04T16:23:26;11.68;;;1.88;;
31638;SDS011;18248;51.522;7.020;2023-03-04T16:26:25;12.90;;;1.88;;
31638;SDS011;18248;51.522;7.020;2023-03-04T16:29:26;10.02;;;2.42;;
31638;SDS011;18248;51.522;7.020;2023-03-04T16:32:27;9.27;;;1.88;;
31638;SDS011;18248;51.522;7.020;2023-03-04T16:35:28;8.13;;;1.77;;
31638;SDS011;18248;51.522;7.020;2023-03-04T16:38:27;14.02;;;1.80;;
31638;SDS011;18248;51.522;7.020;2023-03-04T16:41:28;31.75;;;17.55;;
31638;SDS011;18248;51.522;7.020;2023-03-04T16:44:30;10.75;;;4.00;;
31638;SDS011;18248;51.522;7.020;2023-03-04T16:47:28;11.07;;;5.93;;
31638;SDS011;18248;51.522;7.020;2023-03-04T16:50:27;14.75;;;3.70;;
31638;SDS011;18248;51.522;7.020;2023-03-04T16:56:26;10.10;;;2.13;;
31638;SDS011;18248;51.522;7.020;2023-03-04T16:59:25;11.88;;;2.15;;
31638;SDS011;18248;51.522;7.020;2023-03-04T17:02:25;11.80;;;2.67;;
31638;SDS011;18248;51.522;7.020;2023-03-04T17:05:28;13.70;;;2.15;;
31638;SDS011;18248;51.522;7.020;2023-03-04T17:08:30;11.50;;;2.70;;
31638;SDS011;18248;51.522;7.020;2023-03-04T17:11:29;11.98;;;2.30;;
31638;SDS011;18248;51.522;7.020;2023-03-04T17:14:27;10.27;;;2.63;;
31638;SDS011;18248;51.522;7.020;2023-03-04T17:17:26;9.00;;;2.05;;
31638;SDS011;18248;51.522;7.020;2023-03-04T17:20:24;12.68;;;3.17;;
31638;SDS011;18248;51.522;7.020;2023-03-04T17:23:23;11.40;;;3.30;;
31638;SDS011;18248;51.522;7.020;2023-03-04T17:26:22;10.57;;;2.80;;
31638;SDS011;18248;51.522;7.020;2023-03-04T17:29:21;14.45;;;2.97;;
31638;SDS011;18248;51.522;7.020;2023-03-04T17:32:20;13.80;;;2.67;;
31638;SDS011;18248;51.522;7.020;2023-03-04T17:35:19;7.18;;;2.33;;
31638;SDS011;18248;51.522;7.020;2023-03-04T17:38:18;12.13;;;2.83;;
31638;SDS011;18248;51.522;7.020;2023-03-04T17:41:16;18.77;;;3.42;;
31638;SDS011;18248;51.522;7.020;2023-03-04T17:44:15;15.15;;;3.40;;
31638;SDS011;18248;51.522;7.020;2023-03-04T17:47:14;17.23;;;3.70;;
31638;SDS011;18248;51.522;7.020;2023-03-04T17:50:13;11.70;;;2.47;;
31638;SDS011;18248;51.522;7.020;2023-03-04T17:53:11;21.10;;;3.20;;
31638;SDS011;18248;51.522;7.020;2023-03-04T17:56:10;18.40;;;3.47;;
31638;SDS011;18248;51.522;7.020;2023-03-04T17:59:11;12.07;;;2.72;;
31638;SDS011;18248;51.522;7.020;2023-03-04T18:02:14;12.80;;;3.33;;
31638;SDS011;18248;51.522;7.020;2023-03-04T18:05:13;29.55;;;5.20;;
31638;SDS011;18248;51.522;7.020;2023-03-04T18:08:11;23.58;;;9.52;;
31638;SDS011;18248;51.522;7.020;2023-03-04T18:11:10;17.85;;;5.95;;
31638;SDS011;18248;51.522;7.020;2023-03-04T18:14:09;22.77;;;3.10;;
31638;SDS011;18248;51.522;7.020;2023-03-04T18:17:09;15.95;;;3.22;;
31638;SDS011;18248;51.522;7.020;2023-03-04T18:20:08;17.55;;;3.92;;
31638;SDS011;18248;51.522;7.020;2023-03-04T18:23:09;16.45;;;3.55;;
31638;SDS011;18248;51.522;7.020;2023-03-04T18:26:10;18.10;;;5.18;;
31638;SDS011;18248;51.522;7.020;2023-03-04T18:29:09;20.98;;;4.25;;
31638;SDS011;18248;51.522;7.020;2023-03-04T18:32:07;15.90;;;3.30;;
31638;SDS011;18248;51.522;7.020;2023-03-04T18:35:06;20.92;;;6.25;;
31638;SDS011;18248;51.522;7.020;2023-03-04T18:38:05;17.00;;;4.35;;
31638;SDS011;18248;51.522;7.020;2023-03-04T18:41:05;17.17;;;5.00;;
31638;SDS011;18248;51.522;7.020;2023-03-04T18:44:07;17.55;;;3.17;;
31638;SDS011;18248;51.522;7.020;2023-03-04T18:47:06;14.85;;;3.85;;
31638;SDS011;18248;51.522;7.020;2023-03-04T18:50:06;16.40;;;2.70;;
31638;SDS011;18248;51.522;7.020;2023-03-04T18:53:05;12.27;;;3.17;;
31638;SDS011;18248;51.522;7.020;2023-03-04T18:56:27;13.05;;;3.22;;
31638;SDS011;18248;51.522;7.020;2023-03-04T18:59:29;16.95;;;2.72;;
31638;SDS011;18248;51.522;7.020;2023-03-04T19:02:39;15.98;;;3.13;;
31638;SDS011;18248;51.522;7.020;2023-03-04T19:05:44;10.95;;;3.28;;
31638;SDS011;18248;51.522;7.020;2023-03-04T19:08:43;14.88;;;3.17;;
31638;SDS011;18248;51.522;7.020;2023-03-04T19:11:41;15.25;;;2.40;;
31638;SDS011;18248;51.522;7.020;2023-03-04T19:14:41;15.30;;;2.67;;
31638;SDS011;18248;51.522;7.020;2023-03-04T19:17:39;7.97;;;2.25;;
31638;SDS011;18248;51.522;7.020;2023-03-04T19:20:40;12.48;;;2.80;;
31638;SDS011;18248;51.522;7.020;2023-03-04T19:23:39;12.38;;;2.95;;
31638;SDS011;18248;51.522;7.020;2023-03-04T19:26:38;13.18;;;3.03;;
31638;SDS011;18248;51.522;7.020;2023-03-04T19:29:37;9.88;;;3.17;;